createdAt,value
2018-09-15T00:01:38.179Z,70.20
2018-09-15T00:04:08.836Z,70.30
2018-09-15T00:06:39.540Z,70.50
2018-09-15T00:09:10.659Z,70.40
2018-09-15T00:11:41.336Z,70.60
2018-09-15T00:14:11.988Z,71.60
2018-09-15T00:16:42.673Z,70.40
2018-09-15T00:19:13.338Z,70.40
2018-09-15T00:21:44.220Z,70.80
2018-09-15T00:24:14.896Z,71.10
2018-09-15T00:26:45.565Z,71.00
2018-09-15T00:29:16.241Z,71.00
2018-09-15T00:31:46.922Z,70.80
2018-09-15T00:34:17.600Z,71.10
2018-09-15T00:36:48.254Z,71.00
2018-09-15T00:39:18.932Z,71.50
2018-09-15T00:41:49.621Z,70.90
2018-09-15T00:44:20.495Z,71.00
2018-09-15T00:46:51.182Z,70.90
2018-09-15T00:49:21.856Z,70.80
2018-09-15T00:51:52.495Z,71.00
2018-09-15T00:54:23.370Z,71.40
2018-09-15T00:56:54.044Z,71.50
2018-09-15T00:59:24.682Z,71.10
2018-09-15T01:01:55.428Z,71.30
2018-09-15T01:04:26.092Z,71.30
2018-09-15T01:06:56.944Z,71.40
2018-09-15T01:09:27.591Z,71.60
2018-09-15T01:11:58.282Z,71.70
2018-09-15T01:14:28.954Z,71.30
2018-09-15T01:16:59.817Z,71.70
2018-09-15T01:19:30.468Z,71.70
2018-09-15T01:22:01.149Z,71.30
2018-09-15T01:24:31.790Z,71.60
2018-09-15T01:27:02.484Z,72.00
2018-09-15T01:29:33.163Z,72.20
2018-09-15T01:32:04.416Z,72.10
2018-09-15T01:34:35.096Z,72.10
2018-09-15T01:37:05.761Z,72.00
2018-09-15T01:39:36.444Z,72.20
2018-09-15T01:42:07.462Z,72.90
2018-09-15T01:44:38.204Z,72.70
2018-09-15T01:47:08.869Z,72.30
2018-09-15T01:49:39.887Z,72.10
2018-09-15T01:52:10.575Z,72.00
2018-09-15T01:54:41.268Z,72.10
2018-09-15T01:57:12.227Z,72.10
2018-09-15T01:59:42.913Z,72.40
2018-09-15T02:02:13.580Z,72.60
2018-09-15T02:04:44.268Z,72.40
2018-09-15T02:07:14.940Z,72.50
2018-09-15T02:09:45.608Z,72.20
2018-09-15T02:12:16.281Z,72.40
2018-09-15T02:14:46.960Z,73.60
2018-09-15T02:17:17.591Z,73.00
2018-09-15T02:19:48.255Z,73.20
2018-09-15T02:22:19.273Z,73.80
2018-09-15T02:24:49.950Z,73.60
2018-09-15T02:27:20.584Z,73.40
2018-09-15T02:29:51.245Z,74.10
2018-09-15T02:32:21.913Z,74.80
2018-09-15T02:34:52.584Z,75.90
2018-09-15T02:37:23.222Z,76.00
2018-09-15T02:39:53.891Z,75.90
2018-09-15T02:42:24.528Z,76.10
2018-09-15T02:44:55.216Z,76.10
2018-09-15T02:47:25.859Z,76.50
2018-09-15T02:49:56.530Z,76.90
2018-09-15T02:52:27.163Z,77.00
2018-09-15T02:54:57.892Z,77.20
2018-09-15T02:57:28.555Z,77.50
2018-09-15T02:59:59.395Z,78.30
2018-09-15T03:02:30.051Z,78.20
2018-09-15T03:05:07.520Z,77.90
2018-09-15T03:07:38.188Z,78.00
2018-09-15T03:10:08.856Z,78.60
2018-09-15T03:12:39.556Z,79.10
2018-09-15T03:15:10.392Z,79.00
2018-09-15T03:17:41.055Z,79.40
2018-09-15T03:20:11.948Z,79.90
2018-09-15T03:22:42.661Z,80.00
2018-09-15T03:25:13.498Z,80.30
2018-09-15T03:27:44.198Z,80.60
2018-09-15T03:30:14.830Z,81.20
2018-09-15T03:32:45.512Z,81.10
2018-09-15T03:35:16.142Z,81.40
2018-09-15T03:37:46.816Z,81.40
2018-09-15T03:40:17.459Z,81.90
2018-09-15T03:42:48.155Z,81.70
2018-09-15T03:45:18.826Z,82.20
2018-09-15T03:47:49.497Z,82.40
2018-09-15T03:50:20.146Z,82.20
2018-09-15T03:52:50.840Z,82.50
2018-09-15T03:55:21.512Z,82.60
2018-09-15T03:57:52.352Z,82.90
2018-09-15T04:00:23.006Z,82.90
2018-09-15T04:02:53.688Z,83.10
2018-09-15T04:05:24.357Z,83.30
2018-09-15T04:07:55.049Z,83.70
2018-09-15T04:10:25.687Z,83.60
2018-09-15T04:12:56.395Z,83.90
2018-09-15T04:15:27.084Z,84.10
2018-09-15T04:17:57.719Z,85.00
2018-09-15T04:20:28.394Z,85.00
2018-09-15T04:22:59.036Z,84.80
2018-09-15T04:25:29.718Z,85.00
2018-09-15T04:28:00.356Z,85.10
2018-09-15T04:30:31.048Z,85.30
2018-09-15T04:33:01.695Z,85.30
2018-09-15T04:35:32.393Z,85.50
2018-09-15T04:38:03.257Z,85.40
2018-09-15T04:40:34.139Z,85.50
2018-09-15T04:43:04.798Z,85.50
2018-09-15T04:45:35.496Z,85.40
2018-09-15T04:48:06.144Z,85.50
2018-09-15T04:50:36.828Z,85.60
2018-09-15T04:53:07.687Z,85.70
2018-09-15T04:55:38.347Z,85.20
2018-09-15T04:58:09.031Z,85.10
2018-09-15T05:00:39.890Z,85.00
2018-09-15T05:03:12.402Z,84.70
2018-09-15T05:05:43.038Z,84.60
2018-09-15T05:08:13.702Z,84.50
2018-09-15T05:10:44.382Z,84.90
2018-09-15T05:13:15.026Z,85.00
2018-09-15T05:15:45.724Z,84.70
2018-09-15T05:18:16.400Z,84.80
2018-09-15T05:20:47.172Z,85.20
2018-09-15T05:23:17.837Z,85.00
2018-09-15T05:25:48.503Z,84.90
2018-09-15T05:28:19.164Z,85.20
2018-09-15T05:30:50.011Z,85.40
2018-09-15T05:33:20.682Z,85.20
2018-09-15T05:35:51.484Z,85.60
2018-09-15T05:38:22.155Z,85.40
2018-09-15T05:40:52.848Z,85.40
2018-09-15T05:43:23.496Z,85.60
2018-09-15T05:45:54.275Z,85.60
2018-09-15T05:48:24.955Z,85.80
2018-09-15T05:50:55.727Z,86.00
2018-09-15T05:53:26.463Z,85.80
2018-09-15T05:55:57.195Z,86.10
2018-09-15T05:58:28.074Z,86.50
2018-09-15T06:00:58.745Z,86.40
2018-09-15T06:03:29.435Z,87.90
2018-09-15T06:06:00.109Z,87.10
2018-09-15T06:08:30.772Z,87.00
2018-09-15T06:11:01.444Z,86.30
2018-09-15T06:13:32.191Z,87.10
2018-09-15T06:16:02.976Z,87.00
2018-09-15T06:18:33.987Z,87.10
2018-09-15T06:21:04.734Z,87.00
2018-09-15T06:23:35.404Z,87.10
2018-09-15T06:26:06.060Z,87.20
2018-09-15T06:28:36.771Z,87.30
2018-09-15T06:31:07.446Z,87.30
2018-09-15T06:33:38.117Z,87.30
2018-09-15T06:36:08.772Z,87.40
2018-09-15T06:38:39.443Z,87.90
2018-09-15T06:41:10.107Z,88.20
2018-09-15T06:43:40.806Z,88.10
2018-09-15T06:46:18.091Z,87.90
2018-09-15T06:48:48.774Z,88.40
2018-09-15T06:51:19.468Z,88.20
2018-09-15T06:53:50.382Z,88.60
2018-09-15T06:56:21.186Z,88.20
2018-09-15T06:58:58.993Z,88.00
2018-09-15T07:01:29.640Z,88.30
2018-09-15T07:04:00.329Z,88.10
2018-09-15T07:06:30.966Z,88.00
2018-09-15T07:09:01.656Z,87.80
2018-09-15T07:11:32.304Z,87.90
2018-09-15T07:14:04.046Z,88.00
2018-09-15T07:16:34.835Z,87.50
2018-09-15T07:19:06.152Z,87.20
2018-09-15T07:21:36.820Z,87.20
2018-09-15T07:24:07.868Z,86.80
2018-09-15T07:26:38.503Z,86.70
2018-09-15T07:29:09.190Z,87.30
2018-09-15T07:31:39.913Z,86.70
2018-09-15T07:34:10.723Z,86.70
2018-09-15T07:36:41.395Z,85.50
2018-09-15T07:39:12.770Z,85.10
2018-09-15T07:41:43.431Z,84.70
2018-09-15T07:44:14.090Z,84.70
2018-09-15T07:46:45.139Z,84.30
2018-09-15T07:49:15.959Z,84.30
2018-09-15T07:51:46.694Z,83.90
2018-09-15T07:54:17.484Z,83.50
2018-09-15T07:56:48.195Z,83.20
2018-09-15T07:59:19.048Z,83.40
2018-09-15T08:01:49.732Z,83.20
2018-09-15T08:04:20.599Z,83.40
2018-09-15T08:06:51.244Z,82.90
2018-09-15T08:09:21.916Z,82.60
2018-09-15T08:11:52.584Z,82.70
2018-09-15T08:14:23.270Z,82.50
2018-09-15T08:16:53.917Z,82.40
2018-09-15T08:19:24.619Z,82.10
2018-09-15T08:21:55.288Z,81.90
2018-09-15T08:24:25.990Z,80.70
2018-09-15T08:26:56.649Z,80.20
2018-09-15T08:29:27.326Z,80.80
2018-09-15T08:31:58.037Z,78.70
2018-09-15T08:34:28.857Z,79.00
2018-09-15T08:36:59.562Z,79.70
2018-09-15T08:39:30.756Z,79.50
2018-09-15T08:42:01.426Z,78.60
2018-09-15T08:44:32.083Z,77.70
2018-09-15T08:47:02.757Z,78.00
2018-09-15T08:49:33.399Z,77.40
2018-09-15T08:52:04.063Z,77.20
2018-09-15T08:54:34.746Z,76.90
2018-09-15T08:57:05.739Z,77.40
2018-09-15T08:59:36.399Z,77.30
2018-09-15T09:02:11.604Z,76.00
2018-09-15T09:04:43.460Z,75.20
2018-09-15T09:07:14.223Z,75.40
2018-09-15T09:09:44.887Z,75.50
2018-09-15T09:12:15.568Z,76.10
2018-09-15T09:14:46.411Z,77.00
2018-09-15T09:17:17.058Z,76.70
2018-09-15T09:19:48.115Z,75.30
2018-09-15T09:22:18.963Z,75.90
2018-09-15T09:24:49.619Z,76.40
2018-09-15T09:27:20.292Z,74.90
2018-09-15T09:29:50.936Z,74.20
2018-09-15T09:32:21.672Z,73.80
2018-09-15T09:34:52.478Z,72.80
2018-09-15T09:37:23.332Z,73.10
2018-09-15T09:39:53.971Z,72.00
2018-09-15T09:42:24.887Z,72.00
2018-09-15T09:44:55.564Z,72.60
2018-09-15T09:47:26.326Z,71.10
2018-09-15T09:49:57.142Z,71.10
2018-09-15T09:52:27.825Z,71.20
2018-09-15T09:54:58.458Z,72.10
2018-09-15T09:57:29.123Z,72.10
2018-09-15T09:59:59.759Z,70.40
2018-09-15T10:02:30.563Z,69.90
2018-09-15T10:05:01.824Z,69.70
2018-09-15T10:07:32.491Z,69.60
2018-09-15T10:10:03.520Z,70.00
2018-09-15T10:12:34.267Z,68.20
2018-09-15T10:15:05.284Z,66.10
2018-09-15T10:17:35.955Z,65.30
2018-09-15T10:20:06.968Z,66.30
2018-09-15T10:22:37.630Z,65.50
2018-09-15T10:25:08.346Z,65.40
2018-09-15T10:27:39.161Z,64.50
2018-09-15T10:30:09.850Z,63.20
2018-09-15T10:32:40.488Z,63.00
2018-09-15T10:35:11.148Z,62.40
2018-09-15T10:37:41.816Z,61.20
2018-09-15T10:40:12.514Z,62.00
2018-09-15T10:42:43.388Z,62.10
2018-09-15T10:45:14.601Z,60.50
2018-09-15T10:47:45.248Z,61.10
2018-09-15T10:50:16.073Z,60.90
2018-09-15T10:52:46.747Z,62.90
2018-09-15T10:55:17.392Z,61.10
2018-09-15T10:57:48.060Z,61.40
2018-09-15T11:00:18.745Z,59.90
2018-09-15T11:02:49.571Z,60.00
2018-09-15T11:05:20.211Z,60.00
2018-09-15T11:07:50.920Z,61.30
2018-09-15T11:10:21.563Z,60.70
2018-09-15T11:12:52.262Z,61.60
2018-09-15T11:15:22.940Z,59.90
2018-09-15T11:17:53.648Z,58.80
2018-09-15T11:20:24.315Z,57.80
2018-09-15T11:22:54.996Z,57.20
2018-09-15T11:25:25.856Z,57.30
2018-09-15T11:27:56.506Z,57.70
2018-09-15T11:30:27.163Z,57.00
2018-09-15T11:32:57.817Z,56.50
2018-09-15T11:35:28.240Z,56.40
2018-09-15T11:37:59.011Z,56.00
2018-09-15T11:40:29.686Z,57.10
2018-09-15T11:43:00.049Z,55.80
2018-09-15T11:45:30.440Z,55.20
2018-09-15T11:48:00.866Z,54.70
2018-09-15T11:50:31.355Z,54.90
2018-09-15T11:53:01.864Z,55.90
2018-09-15T11:55:32.231Z,56.00
2018-09-15T11:58:02.910Z,56.60
2018-09-15T12:00:35.675Z,56.50
2018-09-15T12:03:06.064Z,56.90
2018-09-15T12:05:36.441Z,56.00
2018-09-15T12:08:06.836Z,56.70
2018-09-15T12:10:37.198Z,58.80
2018-09-15T12:13:07.965Z,57.60
2018-09-15T12:15:38.312Z,56.20
2018-09-15T12:18:08.999Z,56.90
2018-09-15T12:20:39.391Z,55.50
2018-09-15T12:23:09.749Z,55.60
2018-09-15T12:25:40.513Z,56.00
2018-09-15T12:28:11.233Z,55.70
2018-09-15T12:30:41.607Z,56.30
2018-09-15T12:33:11.964Z,57.00
2018-09-15T12:35:42.410Z,56.40
2018-09-15T12:38:12.759Z,55.40
2018-09-15T12:40:43.152Z,55.00
2018-09-15T12:43:13.512Z,54.80
2018-09-15T12:45:43.899Z,52.80
2018-09-15T12:48:14.271Z,50.80
2018-09-15T12:50:44.791Z,51.00
2018-09-15T12:53:15.173Z,50.70
2018-09-15T12:55:45.617Z,50.10
2018-09-15T12:58:16.047Z,49.30
2018-09-15T13:00:46.434Z,48.40
2018-09-15T13:03:16.835Z,48.50
2018-09-15T13:05:47.189Z,50.80
2018-09-15T13:08:17.566Z,50.30
2018-09-15T13:10:47.919Z,50.90
2018-09-15T13:13:18.304Z,51.30
2018-09-15T13:15:48.820Z,51.20
2018-09-15T13:18:19.232Z,50.90
2018-09-15T13:20:49.644Z,51.00
2018-09-15T13:23:20.063Z,51.70
2018-09-15T13:25:50.436Z,52.40
2018-09-15T13:28:20.928Z,50.90
2018-09-15T13:30:51.280Z,51.70
2018-09-15T13:33:21.796Z,50.40
2018-09-15T13:35:52.153Z,49.70
2018-09-15T13:38:22.655Z,48.70
2018-09-15T13:40:53.020Z,49.60
2018-09-15T13:43:23.412Z,48.90
2018-09-15T13:45:53.795Z,49.80
2018-09-15T13:48:24.144Z,49.60
2018-09-15T13:50:54.532Z,49.20
2018-09-15T13:53:25.018Z,49.60
2018-09-15T13:55:55.552Z,48.60
2018-09-15T13:58:26.287Z,49.40
2018-09-15T14:00:56.837Z,49.10
2018-09-15T14:03:27.182Z,47.80
2018-09-15T14:05:57.583Z,48.20
2018-09-15T14:08:27.969Z,47.10
2018-09-15T14:10:58.395Z,47.90
2018-09-15T14:13:28.891Z,48.00
2018-09-15T14:15:59.271Z,48.10
2018-09-15T14:18:29.650Z,48.50
2018-09-15T14:21:00.067Z,48.60
2018-09-15T14:23:30.454Z,48.20
2018-09-15T14:26:00.796Z,48.90
2018-09-15T14:28:31.232Z,48.40
2018-09-15T14:31:01.815Z,48.20
2018-09-15T14:33:32.192Z,48.40
2018-09-15T14:36:02.546Z,48.00
2018-09-15T14:38:32.939Z,49.20
2018-09-15T14:41:03.488Z,49.50
2018-09-15T14:43:33.867Z,50.20
2018-09-15T14:46:04.235Z,50.40
2018-09-15T14:48:34.616Z,49.90
2018-09-15T14:51:05.001Z,50.90
2018-09-15T14:53:35.366Z,50.60
2018-09-15T14:56:06.106Z,50.40
2018-09-15T14:58:36.750Z,49.80
2018-09-15T15:01:07.489Z,50.00
2018-09-15T15:03:38.217Z,50.30
2018-09-15T15:06:08.621Z,49.90
2018-09-15T15:08:39.151Z,49.90
2018-09-15T15:11:09.530Z,49.90
2018-09-15T15:13:40.048Z,50.30
2018-09-15T15:16:10.524Z,50.20
2018-09-15T15:18:40.875Z,50.30
2018-09-15T15:21:11.261Z,51.00
2018-09-15T15:23:41.621Z,51.10
2018-09-15T15:26:12.045Z,50.40
2018-09-15T15:28:42.563Z,50.80
2018-09-15T15:31:12.930Z,50.80
2018-09-15T15:33:43.297Z,51.30
2018-09-15T15:36:13.677Z,51.10
2018-09-15T15:38:44.424Z,51.70
2018-09-15T15:41:14.817Z,51.50
2018-09-15T15:43:45.427Z,51.60
2018-09-15T15:46:16.009Z,51.80
2018-09-15T15:48:46.388Z,52.10
2018-09-15T15:51:16.947Z,52.20
2018-09-15T15:53:47.303Z,51.90
2018-09-15T15:56:17.684Z,52.40
2018-09-15T15:58:48.288Z,52.50
2018-09-15T16:01:18.835Z,52.60
2018-09-15T16:03:49.260Z,52.70
2018-09-15T16:06:19.656Z,53.00
2018-09-15T16:08:50.983Z,52.80
2018-09-15T16:11:21.892Z,52.50
2018-09-15T16:13:52.327Z,52.90
2018-09-15T16:16:22.678Z,52.90
2018-09-15T16:18:53.254Z,52.60
2018-09-15T16:21:23.640Z,52.40
2018-09-15T16:23:54.055Z,52.80
2018-09-15T16:26:24.398Z,52.90
2018-09-15T16:28:54.783Z,53.00
2018-09-15T16:31:25.132Z,52.90
2018-09-15T16:33:56.515Z,53.20
2018-09-15T16:36:26.911Z,52.70
2018-09-15T16:38:57.251Z,53.30
2018-09-15T16:41:27.644Z,53.30
2018-09-15T16:43:57.995Z,53.80
2018-09-15T16:46:28.398Z,54.20
2018-09-15T16:48:58.932Z,54.40
2018-09-15T16:51:29.312Z,54.10
2018-09-15T16:53:59.699Z,54.00
2018-09-15T16:56:30.100Z,54.20
2018-09-15T16:59:00.523Z,54.50
2018-09-15T17:01:30.899Z,54.40
2018-09-15T17:04:01.612Z,55.30
2018-09-15T17:06:32.008Z,55.50
2018-09-15T17:09:02.735Z,55.90
2018-09-15T17:11:33.413Z,56.00
2018-09-15T17:14:04.157Z,56.00
2018-09-15T17:16:34.599Z,56.50
2018-09-15T17:19:05.333Z,57.40
2018-09-15T17:21:35.723Z,57.80
2018-09-15T17:24:06.687Z,58.60
2018-09-15T17:26:37.093Z,59.40
2018-09-15T17:29:07.456Z,59.40
2018-09-15T17:31:37.848Z,59.50
2018-09-15T17:34:08.232Z,59.60
2018-09-15T17:36:38.621Z,59.80
2018-09-15T17:39:10.531Z,59.70
2018-09-15T17:41:41.232Z,60.10
2018-09-15T17:44:11.585Z,61.90
2018-09-15T17:46:42.256Z,60.60
2018-09-15T17:49:12.891Z,62.00
2018-09-15T17:51:43.575Z,62.40
2018-09-15T17:54:14.224Z,62.60
2018-09-15T17:56:44.895Z,62.70
2018-09-15T17:59:15.897Z,63.20
2018-09-15T18:01:46.930Z,63.40
2018-09-15T18:04:17.596Z,63.60
2018-09-15T18:06:48.256Z,63.90
2018-09-15T18:09:18.981Z,64.60
2018-09-15T18:11:49.656Z,65.20
2018-09-15T18:14:20.329Z,66.00
2018-09-15T18:16:50.993Z,66.00
2018-09-15T18:19:21.628Z,66.70
2018-09-15T18:21:52.503Z,67.00
2018-09-15T18:24:23.313Z,66.50
2018-09-15T18:26:53.980Z,67.00
2018-09-15T18:29:24.660Z,66.80
2018-09-15T18:31:55.328Z,67.20
2018-09-15T18:34:25.987Z,67.60
2018-09-15T18:36:56.785Z,67.90
2018-09-15T18:39:27.488Z,68.50
2018-09-15T18:41:58.167Z,68.60
2018-09-15T18:44:28.819Z,69.70
2018-09-15T18:46:59.836Z,70.10
2018-09-15T18:49:30.503Z,70.60
2018-09-15T18:52:01.172Z,71.60
2018-09-15T18:54:31.872Z,72.00
2018-09-15T18:57:02.568Z,72.40
2018-09-15T18:59:33.480Z,72.60
2018-09-15T19:02:04.170Z,73.20
2018-09-15T19:04:34.816Z,72.70
2018-09-15T19:07:05.620Z,73.00
2018-09-15T19:09:36.276Z,73.00
2018-09-15T19:12:07.292Z,73.00
2018-09-15T19:14:38.064Z,73.70
2018-09-15T19:17:08.888Z,74.10
2018-09-15T19:19:39.751Z,74.40
2018-09-15T19:22:10.416Z,74.40
2018-09-15T19:24:41.055Z,74.40
2018-09-15T19:27:11.748Z,74.00
2018-09-15T19:29:42.382Z,74.70
2018-09-15T19:32:13.051Z,74.70
2018-09-15T19:34:43.692Z,74.70
2018-09-15T19:37:14.577Z,75.20
2018-09-15T19:39:45.224Z,75.30
2018-09-15T19:42:15.906Z,74.90
2018-09-15T19:44:46.584Z,75.60
2018-09-15T19:47:17.267Z,75.70
2018-09-15T19:49:47.952Z,75.80
2018-09-15T19:52:18.739Z,75.50
2018-09-15T19:54:49.411Z,76.00
2018-09-15T19:57:20.224Z,76.10
2018-09-15T19:59:50.939Z,76.50
2018-09-15T20:02:21.570Z,77.60
2018-09-15T20:04:52.244Z,77.40
2018-09-15T20:07:23.112Z,77.00
2018-09-15T20:09:53.779Z,76.90
2018-09-15T20:12:24.460Z,76.40
2018-09-15T20:14:55.266Z,76.60
2018-09-15T20:17:25.287Z,76.60
2018-09-15T20:19:55.015Z,76.70
2018-09-15T20:22:25.691Z,76.60
2018-09-15T20:24:56.406Z,76.60
2018-09-15T20:27:27.997Z,76.90
2018-09-15T20:29:58.681Z,76.70
2018-09-15T20:32:29.373Z,76.60
2018-09-15T20:35:00.233Z,76.80
2018-09-15T20:37:30.964Z,76.80
2018-09-15T20:40:01.664Z,77.00
2018-09-15T20:42:32.481Z,76.90
2018-09-15T20:45:03.136Z,76.90
2018-09-15T20:47:33.815Z,77.20
2018-09-15T20:50:06.799Z,77.20
2018-09-15T20:52:38.348Z,77.10
2018-09-15T20:55:09.647Z,77.30
2018-09-15T20:57:40.675Z,77.30
2018-09-15T21:00:13.325Z,77.30
2018-09-15T21:02:45.247Z,77.20
2018-09-15T21:05:17.469Z,77.40
2018-09-15T21:07:49.580Z,77.30
2018-09-15T21:10:21.395Z,77.20
2018-09-15T21:12:53.093Z,77.20
2018-09-15T21:15:24.640Z,77.20
2018-09-15T21:17:56.334Z,77.90
2018-09-15T21:20:28.067Z,78.60
2018-09-15T21:23:00.208Z,78.80
2018-09-15T21:25:31.978Z,78.80
2018-09-15T21:28:03.919Z,79.20
2018-09-15T21:30:35.787Z,79.80
2018-09-15T21:33:07.425Z,79.70
2018-09-15T21:35:38.077Z,79.70
2018-09-15T21:38:08.718Z,80.20
2018-09-15T21:40:39.386Z,80.00
2018-09-15T21:43:10.019Z,80.70
2018-09-15T21:45:40.683Z,80.80
2018-09-15T21:48:11.318Z,81.00
2018-09-15T21:50:41.979Z,81.00
2018-09-15T21:53:12.615Z,81.00
2018-09-15T21:55:43.284Z,81.40
2018-09-15T21:58:13.929Z,81.40
2018-09-15T22:00:44.673Z,82.10
2018-09-15T22:03:18.859Z,82.50
2018-09-15T22:05:49.548Z,82.50
2018-09-15T22:08:20.617Z,82.30
2018-09-15T22:10:51.279Z,82.20
2018-09-15T22:13:23.031Z,82.10
2018-09-15T22:15:53.774Z,82.20
2018-09-15T22:18:24.567Z,82.10
2018-09-15T22:20:55.208Z,82.60
2018-09-15T22:23:25.878Z,82.20
2018-09-15T22:25:56.552Z,82.00
2018-09-15T22:28:27.220Z,82.30
2018-09-15T22:30:57.880Z,82.70
2018-09-15T22:33:28.553Z,82.20
2018-09-15T22:35:59.186Z,82.50
2018-09-15T22:38:29.855Z,82.50
2018-09-15T22:41:00.511Z,83.20
2018-09-15T22:43:31.372Z,83.10
2018-09-15T22:46:02.008Z,83.50
2018-09-15T22:48:32.683Z,83.40
2018-09-15T22:51:03.436Z,83.60
2018-09-15T22:53:34.079Z,84.20
2018-09-15T22:56:04.778Z,84.20
2018-09-15T22:58:35.480Z,84.50
2018-09-15T23:01:06.175Z,84.60
2018-09-15T23:03:36.826Z,85.50
2018-09-15T23:06:07.496Z,84.90
2018-09-15T23:08:38.132Z,84.90
2018-09-15T23:11:08.967Z,84.90
2018-09-15T23:13:39.659Z,85.80
2018-09-15T23:16:10.549Z,85.90
2018-09-15T23:18:41.191Z,85.60
2018-09-15T23:21:11.883Z,86.00
2018-09-15T23:23:42.515Z,86.00
2018-09-15T23:26:13.224Z,86.20
2018-09-15T23:28:43.868Z,86.30
2018-09-15T23:31:14.526Z,86.20
2018-09-15T23:33:45.163Z,86.20
2018-09-15T23:36:15.836Z,86.20
2018-09-15T23:38:46.471Z,86.40
2018-09-15T23:41:17.131Z,86.40
2018-09-15T23:43:47.767Z,86.60
2018-09-15T23:46:18.430Z,86.40
2018-09-15T23:48:49.071Z,86.20
2018-09-15T23:51:19.735Z,86.40
2018-09-15T23:53:50.363Z,86.90
2018-09-15T23:56:21.027Z,86.90
2018-09-15T23:58:51.699Z,87.30
